Time;durP1;ratioP1;P1;durP2;ratioP2;P2;SDS_P1;SDS_P2;PMS_P1;PMS_P2;Temp;Humidity;BMP_temperature;BMP_pressure;BME280_temperature;BME280_humidity;BME280_pressure;Samples;Min_cycle;Max_cycle;Signal;HPM_P1;HPM_P2
2023/04/11 00:00:20;;;;;;;;;;;;;;;4.89;100.00;99825.91;4908338;29;20450;-84
2023/04/11 00:02:46;;;;;;;;;;;;;;;4.88;100.00;99846.03;4911633;29;19959;-84
2023/04/11 00:05:12;;;;;;;;;;;;;;;4.84;100.00;99848.06;4920187;29;19927;-84
2023/04/11 00:07:38;;;;;;;;;;;;;;;4.81;100.00;99847.47;4914100;29;20041;-84
2023/04/11 00:10:05;;;;;;;;;;;;;;;4.79;100.00;99849.38;4909688;29;19919;-84
2023/04/11 00:12:31;;;;;;;;;;;;;;;4.74;100.00;99838.44;4899567;29;20413;-84
2023/04/11 00:14:57;;;;;;;;;;;;;;;4.74;100.00;99841.88;4925992;29;19922;-83
2023/04/11 00:17:22;;;;;;;;;;;;;;;4.71;100.00;99839.50;4891035;29;19926;-84
2023/04/11 00:19:52;;;;;;;;;;;;;;;4.69;100.00;99842.25;4916325;29;20265;-84
2023/04/11 00:22:17;;;;;;;;;;;;;;;4.65;100.00;99840.81;4933704;29;19958;-84
2023/04/11 00:24:44;;;;;;;;;;;;;;;4.63;100.00;99847.97;4914344;29;20013;-84
2023/04/11 00:27:10;;;;;;;;;;;;;;;4.63;100.00;99849.75;4931629;29;20336;-84
2023/04/11 00:29:35;;;;;;;;;;;;;;;4.63;100.00;99852.38;4901468;29;20025;-84
2023/04/11 00:32:01;;;;;;;;;;;;;;;4.62;100.00;99851.53;4914288;29;20027;-84
2023/04/11 00:34:27;;;;;;;;;;;;;;;4.62;100.00;99848.91;4912235;29;19927;-84
2023/04/11 00:36:53;;;;;;;;;;;;;;;4.59;100.00;99841.28;4924462;29;19970;-84
2023/04/11 00:39:20;;;;;;;;;;;;;;;4.59;100.00;99836.91;4915961;29;20438;-84
2023/04/11 00:41:45;;;;;;;;;;;;;;;4.61;100.00;99839.41;4923206;29;20324;-85
2023/04/11 00:44:12;;;;;;;;;;;;;;;4.59;100.00;99842.13;4908971;29;19951;-84
2023/04/11 00:46:41;;;;;;;;;;;;;;;4.61;100.00;99849.03;4914546;29;19923;-84
2023/04/11 00:49:07;;;;;;;;;;;;;;;4.61;100.00;99849.03;4904222;29;19966;-84
2023/04/11 00:51:33;;;;;;;;;;;;;;;4.59;100.00;99828.22;4917924;29;20168;-84
2023/04/11 00:54:00;;;;;;;;;;;;;;;4.58;100.00;99837.03;4928561;29;19919;-84
2023/04/11 00:56:26;;;;;;;;;;;;;;;4.54;100.00;99825.16;4906020;29;20441;-84
2023/04/11 00:58:52;;;;;;;;;;;;;;;4.52;100.00;99822.66;4899205;29;20009;-84
2023/04/11 01:01:18;;;;;;;;;;;;;;;4.50;100.00;99818.47;4940165;29;19931;-84
2023/04/11 01:03:44;;;;;;;;;;;;;;;4.45;100.00;99819.66;4907526;29;19927;-84
2023/04/11 01:06:11;;;;;;;;;;;;;;;4.39;100.00;99816.69;4904391;29;19927;-84
2023/04/11 01:08:38;;;;;;;;;;;;;;;4.34;100.00;99815.28;4909528;29;19929;-84
2023/04/11 01:11:04;;;;;;;;;;;;;;;4.32;100.00;99818.94;4927470;29;19984;-77
2023/04/11 01:13:31;;;;;;;;;;;;;;;4.29;100.00;99819.19;4912435;29;19962;-78
2023/04/11 01:15:57;;;;;;;;;;;;;;;4.29;100.00;99812.19;4924019;29;19930;-84
2023/04/11 01:18:24;;;;;;;;;;;;;;;4.31;100.00;99818.13;4914264;29;19922;-84
2023/04/11 01:20:51;;;;;;;;;;;;;;;4.32;100.00;99813.72;4907840;29;19966;-84
2023/04/11 01:23:21;;;;;;;;;;;;;;;4.31;100.00;99815.53;4897267;29;19971;-84
2023/04/11 01:25:47;;;;;;;;;;;;;;;4.24;100.00;99816.94;4898822;29;19981;-84
2023/04/11 01:28:13;;;;;;;;;;;;;;;4.19;100.00;99809.44;4919654;29;19927;-84
2023/04/11 01:30:39;;;;;;;;;;;;;;;4.17;100.00;99807.91;4919651;29;19966;-84
2023/04/11 01:33:05;;;;;;;;;;;;;;;4.13;100.00;99811.69;4891372;29;20257;-84
2023/04/11 01:35:30;;;;;;;;;;;;;;;4.09;100.00;99808.50;4945056;28;19922;-84
2023/04/11 01:37:56;;;;;;;;;;;;;;;4.07;100.00;99813.00;4900828;29;20283;-84
2023/04/11 01:40:22;;;;;;;;;;;;;;;4.04;100.00;99818.47;4915775;29;19946;-84
2023/04/11 01:42:49;;;;;;;;;;;;;;;3.99;100.00;99808.38;4948914;28;19925;-83
2023/04/11 01:45:15;;;;;;;;;;;;;;;3.95;100.00;99812.16;4931193;29;19930;-83
2023/04/11 01:47:41;;;;;;;;;;;;;;;3.94;100.00;99810.50;4909368;29;19974;-83
2023/04/11 01:50:07;;;;;;;;;;;;;;;3.94;100.00;99813.94;4898147;29;19923;-84
2023/04/11 01:52:32;;;;;;;;;;;;;;;3.92;100.00;99815.00;4907305;29;19970;-83
2023/04/11 01:54:58;;;;;;;;;;;;;;;3.89;100.00;99808.22;4946426;28;20411;-83
2023/04/11 01:57:24;;;;;;;;;;;;;;;3.85;100.00;99812.84;4923191;29;19919;-83
2023/04/11 01:59:50;;;;;;;;;;;;;;;3.83;100.00;99814.75;4901116;29;19977;-83
2023/04/11 02:02:15;;;;;;;;;;;;;;;3.78;100.00;99809.03;4928711;29;19927;-84
2023/04/11 02:04:41;;;;;;;;;;;;;;;3.73;100.00;99808.56;4936475;29;20360;-84
2023/04/11 02:07:06;;;;;;;;;;;;;;;3.74;100.00;99812.00;4905138;29;19927;-84
2023/04/11 02:09:32;;;;;;;;;;;;;;;3.72;100.00;99815.56;4916112;29;20010;-84
2023/04/11 02:11:58;;;;;;;;;;;;;;;3.70;100.00;99808.78;4913659;29;19938;-83
2023/04/11 02:14:24;;;;;;;;;;;;;;;3.71;100.00;99813.09;4919712;29;19919;-84
2023/04/11 02:16:53;;;;;;;;;;;;;;;3.68;100.00;99811.50;4902666;29;20013;-84
2023/04/11 02:19:24;;;;;;;;;;;;;;;3.67;100.00;99799.41;4932441;29;19926;-84
2023/04/11 02:21:51;;;;;;;;;;;;;;;3.66;100.00;99797.75;4934868;29;19953;-83
2023/04/11 02:24:16;;;;;;;;;;;;;;;3.68;100.00;99793.22;4918934;29;19919;-84
2023/04/11 02:26:42;;;;;;;;;;;;;;;3.71;100.00;99792.16;4912048;29;19962;-84
2023/04/11 02:29:08;;;;;;;;;;;;;;;3.75;100.00;99787.53;4921270;29;19939;-84
2023/04/11 02:31:33;;;;;;;;;;;;;;;3.79;100.00;99791.59;4915067;29;20427;-84
2023/04/11 02:33:59;;;;;;;;;;;;;;;3.82;100.00;99792.16;4929031;29;19961;-84
2023/04/11 02:36:27;;;;;;;;;;;;;;;3.86;100.00;99790.16;4900515;29;19920;-87
2023/04/11 02:38:53;;;;;;;;;;;;;;;3.89;100.00;99781.22;4925247;29;19927;-84
2023/04/11 02:41:18;;;;;;;;;;;;;;;3.90;100.00;99778.50;4925736;29;19961;-84
2023/04/11 02:43:44;;;;;;;;;;;;;;;3.90;100.00;99765.44;4912875;29;20072;-84
2023/04/11 02:46:09;;;;;;;;;;;;;;;3.87;100.00;99759.63;4893554;29;20380;-84
2023/04/11 02:48:35;;;;;;;;;;;;;;;3.85;100.00;99750.09;4932668;29;19923;-84
2023/04/11 02:51:01;;;;;;;;;;;;;;;3.86;100.00;99743.09;4913115;29;19919;-85
2023/04/11 02:53:27;;;;;;;;;;;;;;;3.87;100.00;99743.94;4936742;29;19950;-85
2023/04/11 02:55:52;;;;;;;;;;;;;;;3.86;100.00;99740.47;4914298;29;19925;-84
2023/04/11 02:58:18;;;;;;;;;;;;;;;3.85;100.00;99737.03;4911858;29;19919;-85
2023/04/11 03:00:48;;;;;;;;;;;;;;;3.88;100.00;99741.22;4930874;29;19971;-84
2023/04/11 03:03:14;;;;;;;;;;;;;;;3.89;100.00;99744.63;4915780;29;19923;-84
2023/04/11 03:05:43;;;;;;;;;;;;;;;3.88;100.00;99743.81;4931031;29;20372;-85
2023/04/11 03:08:09;;;;;;;;;;;;;;;3.88;100.00;99735.13;4911600;29;19986;-85
2023/04/11 03:10:38;;;;;;;;;;;;;;;3.88;100.00;99729.91;4890838;29;20412;-85
2023/04/11 03:13:04;;;;;;;;;;;;;;;3.88;100.00;99724.69;4905164;29;20341;-85
2023/04/11 03:15:31;;;;;;;;;;;;;;;3.90;100.00;99728.00;4945279;28;19919;-84
2023/04/11 03:17:58;;;;;;;;;;;;;;;3.94;100.00;99724.19;4894901;29;19928;-85
2023/04/11 03:20:25;;;;;;;;;;;;;;;3.96;100.00;99722.31;4930500;28;19919;-84
2023/04/11 03:22:52;;;;;;;;;;;;;;;4.00;100.00;99722.91;4927188;29;19926;-84
2023/04/11 03:25:19;;;;;;;;;;;;;;;4.01;100.00;99721.94;4893387;29;19976;-84
2023/04/11 03:27:46;;;;;;;;;;;;;;;4.02;100.00;99721.81;4911590;29;20344;-85
2023/04/11 03:30:13;;;;;;;;;;;;;;;3.97;100.00;99713.50;4911442;29;19919;-84
2023/04/11 03:32:41;;;;;;;;;;;;;;;3.93;100.00;99723.38;4880693;28;19979;-84
2023/04/11 03:35:07;;;;;;;;;;;;;;;3.92;100.00;99728.72;4922474;29;19963;-84
2023/04/11 03:37:35;;;;;;;;;;;;;;;3.88;100.00;99732.53;4913091;29;19919;-83
2023/04/11 03:40:00;;;;;;;;;;;;;;;3.86;100.00;99737.88;4899349;29;19923;-84
2023/04/11 03:42:26;;;;;;;;;;;;;;;3.85;100.00;99739.63;4920153;29;19971;-84
2023/04/11 03:44:56;;;;;;;;;;;;;;;3.85;100.00;99738.84;4938461;29;19922;-84
2023/04/11 03:47:24;;;;;;;;;;;;;;;3.84;100.00;99740.59;4907847;29;19920;-84
2023/04/11 03:49:50;;;;;;;;;;;;;;;3.82;100.00;99746.91;4946414;28;19926;-85
2023/04/11 03:52:16;;;;;;;;;;;;;;;3.80;100.00;99744.41;4918806;29;19930;-84
2023/04/11 03:54:44;;;;;;;;;;;;;;;3.79;100.00;99734.06;4935784;29;19923;-84
2023/04/11 03:57:11;;;;;;;;;;;;;;;3.71;100.00;99732.88;4942013;28;19966;-84
2023/04/11 03:59:37;;;;;;;;;;;;;;;3.71;100.00;99732.06;4907497;29;19923;-84
2023/04/11 04:02:07;;;;;;;;;;;;;;;3.70;100.00;99722.53;4908093;29;20457;-84
2023/04/11 04:04:37;;;;;;;;;;;;;;;3.70;100.00;99722.53;4931514;29;19963;-84
2023/04/11 04:07:23;;;;;;;;;;;;;;;3.75;100.00;99728.25;4923171;29;19927;-84
2023/04/11 04:09:55;;;;;;;;;;;;;;;3.79;100.00;99721.81;4926834;29;20435;-84
2023/04/11 04:12:20;;;;;;;;;;;;;;;3.81;100.00;99717.31;4936389;29;19927;-84
2023/04/11 04:15:04;;;;;;;;;;;;;;;3.79;100.00;99716.59;4930626;29;20010;-84
2023/04/11 04:17:30;;;;;;;;;;;;;;;3.81;100.00;99717.31;4931946;29;20007;-84
2023/04/11 04:19:56;;;;;;;;;;;;;;;3.82;100.00;99705.91;4887980;29;20329;-83
2023/04/11 04:22:22;;;;;;;;;;;;;;;3.84;100.00;99696.16;4914856;29;19923;-84
2023/04/11 04:24:56;;;;;;;;;;;;;;;3.83;100.00;99693.66;4927287;29;20349;-84
2023/04/11 04:27:25;;;;;;;;;;;;;;;3.79;100.00;99702.72;4922869;29;19983;-85
2023/04/11 04:29:51;;;;;;;;;;;;;;;3.62;100.00;99694.38;4918504;29;19927;-85
2023/04/11 04:32:22;;;;;;;;;;;;;;;3.51;100.00;99681.28;4928061;29;19927;-84
2023/04/11 04:34:54;;;;;;;;;;;;;;;3.45;100.00;99673.00;4904915;29;19924;-84
2023/04/11 04:37:44;;;;;;;;;;;;;;;3.37;100.00;99679.72;4910146;29;19983;-85
2023/04/11 04:40:45;;;;;;;;;;;;;;;3.29;100.00;99675.09;4895699;29;19934;-84
2023/04/11 04:43:16;;;;;;;;;;;;;;;3.25;100.00;99656.19;4919110;29;19923;-84
2023/04/11 04:46:05;;;;;;;;;;;;;;;3.21;100.00;99644.34;4918635;29;19931;-84
2023/04/11 04:48:40;;;;;;;;;;;;;;;3.19;100.00;99641.00;4904207;29;20030;-84
2023/04/11 04:51:06;;;;;;;;;;;;;;;3.19;100.00;99647.06;4920523;29;20005;-83
2023/04/11 04:53:37;;;;;;;;;;;;;;;3.14;100.00;99638.72;4923075;29;19923;-84
2023/04/11 04:56:04;;;;;;;;;;;;;;;3.07;100.00;99633.13;4909077;29;19927;-77
2023/04/11 04:58:33;;;;;;;;;;;;;;;3.05;100.00;99623.75;4909720;29;19919;-77
2023/04/11 05:01:02;;;;;;;;;;;;;;;3.03;100.00;99626.50;4906752;29;19919;-84
2023/04/11 05:03:33;;;;;;;;;;;;;;;3.03;100.00;99628.25;4928287;29;20437;-84
2023/04/11 05:05:59;;;;;;;;;;;;;;;3.00;100.00;99620.66;4912180;29;20394;-84
2023/04/11 05:08:24;;;;;;;;;;;;;;;2.96;100.00;99620.91;4928409;29;19919;-84
2023/04/11 05:10:53;;;;;;;;;;;;;;;2.96;100.00;99620.91;4935184;29;19962;-85
2023/04/11 05:13:19;;;;;;;;;;;;;;;2.95;100.00;99613.19;4913576;29;19926;-84
2023/04/11 05:15:48;;;;;;;;;;;;;;;2.95;100.00;99602.75;4944253;29;19931;-84
2023/04/11 05:18:14;;;;;;;;;;;;;;;2.97;100.00;99606.91;4923185;29;20397;-84
2023/04/11 05:20:40;;;;;;;;;;;;;;;3.00;100.00;99608.44;4919836;29;20268;-84
2023/04/11 05:23:08;;;;;;;;;;;;;;;3.04;100.00;99607.25;4856361;29;19966;-83
2023/04/11 05:25:34;;;;;;;;;;;;;;;3.04;100.00;99607.25;4904634;29;19927;-84
2023/04/11 05:28:02;;;;;;;;;;;;;;;3.05;100.00;99598.50;4924968;29;19923;-84
2023/04/11 05:30:28;;;;;;;;;;;;;;;3.06;100.00;99597.53;4928549;29;19981;-84
2023/04/11 05:32:53;;;;;;;;;;;;;;;3.07;100.00;99604.41;4935775;29;20290;-85
2023/04/11 05:35:20;;;;;;;;;;;;;;;3.08;100.00;99593.03;4902818;29;19952;-84
2023/04/11 05:37:54;;;;;;;;;;;;;;;3.11;100.00;99599.81;4921611;29;20039;-85
2023/04/11 05:40:20;;;;;;;;;;;;;;;3.14;100.00;99594.34;4929373;29;20015;-85
2023/04/11 05:42:47;;;;;;;;;;;;;;;3.18;100.00;99592.34;4940832;29;19997;-84
2023/04/11 05:45:13;;;;;;;;;;;;;;;3.22;100.00;99580.69;4914515;29;19923;-84
2023/04/11 05:47:38;;;;;;;;;;;;;;;3.20;100.00;99575.59;4930622;29;19919;-85
2023/04/11 05:50:04;;;;;;;;;;;;;;;3.19;100.00;99581.78;4916336;29;19923;-84
2023/04/11 05:52:30;;;;;;;;;;;;;;;3.21;100.00;99576.44;4916038;29;19958;-85
2023/04/11 05:54:56;;;;;;;;;;;;;;;3.22;100.00;99578.09;4911763;29;20361;-84
2023/04/11 05:57:22;;;;;;;;;;;;;;;3.25;100.00;99590.91;4908782;29;19919;-84
2023/04/11 05:59:48;;;;;;;;;;;;;;;3.32;100.00;99579.06;4939203;28;20019;-84
2023/04/11 06:02:15;;;;;;;;;;;;;;;3.44;100.00;99572.03;4930810;29;20251;-84
2023/04/11 06:04:40;;;;;;;;;;;;;;;3.55;100.00;99573.00;4932064;29;19926;-84
2023/04/11 06:07:07;;;;;;;;;;;;;;;3.65;100.00;99568.69;4933797;29;19923;-84
2023/04/11 06:09:33;;;;;;;;;;;;;;;3.71;100.00;99568.19;4917602;29;20287;-84
2023/04/11 06:12:00;;;;;;;;;;;;;;;3.79;100.00;99564.16;4922868;29;19925;-84
2023/04/11 06:14:25;;;;;;;;;;;;;;;3.84;100.00;99562.00;4922174;29;19922;-84
2023/04/11 06:16:51;;;;;;;;;;;;;;;3.89;100.00;99556.38;4919069;29;20412;-84
2023/04/11 06:19:16;;;;;;;;;;;;;;;3.91;100.00;99555.34;4934468;29;20342;-84
2023/04/11 06:21:42;;;;;;;;;;;;;;;3.91;100.00;99551.88;4933386;29;19973;-84
2023/04/11 06:24:09;;;;;;;;;;;;;;;3.99;100.00;99554.72;4938665;29;19922;-84
2023/04/11 06:26:34;;;;;;;;;;;;;;;4.04;100.00;99547.34;4931905;29;19922;-84
2023/04/11 06:29:03;;;;;;;;;;;;;;;4.10;100.00;99546.00;4934774;29;19918;-84
2023/04/11 06:31:28;;;;;;;;;;;;;;;4.09;100.00;99547.78;4933815;29;20299;-84
2023/04/11 06:33:54;;;;;;;;;;;;;;;4.12;100.00;99538.03;4935270;29;19931;-84
2023/04/11 06:36:20;;;;;;;;;;;;;;;4.12;100.00;99538.03;4932091;29;19970;-84
2023/04/11 06:38:46;;;;;;;;;;;;;;;4.08;100.00;99540.06;4931604;29;19923;-84
2023/04/11 06:41:11;;;;;;;;;;;;;;;4.09;100.00;99539.13;4934542;29;20304;-84
2023/04/11 06:43:38;;;;;;;;;;;;;;;4.09;100.00;99539.94;4932322;29;19958;-84
2023/04/11 06:46:04;;;;;;;;;;;;;;;4.13;100.00;99545.75;4932949;29;19945;-83
2023/04/11 06:48:29;;;;;;;;;;;;;;;4.19;100.00;99533.94;4901362;29;19930;-84
2023/04/11 06:50:55;;;;;;;;;;;;;;;4.16;100.00;99527.19;4911019;29;19919;-83
2023/04/11 06:53:21;;;;;;;;;;;;;;;4.20;100.00;99519.94;4932016;29;20002;-84
2023/04/11 06:55:49;;;;;;;;;;;;;;;4.25;100.00;99509.94;4933070;29;20467;-83
2023/04/11 06:58:15;;;;;;;;;;;;;;;4.33;100.00;99506.66;4915544;29;20394;-83
2023/04/11 07:00:41;;;;;;;;;;;;;;;4.38;100.00;99496.63;4950538;28;19923;-83
2023/04/11 07:03:07;;;;;;;;;;;;;;;4.48;100.00;99488.84;4929743;29;19934;-83
2023/04/11 07:05:34;;;;;;;;;;;;;;;4.59;100.00;99485.31;4927879;29;20299;-83
2023/04/11 07:08:00;;;;;;;;;;;;;;;4.65;100.00;99476.16;4930113;29;19934;-83
2023/04/11 07:10:26;;;;;;;;;;;;;;;4.75;100.00;99473.56;4917256;29;19923;-84
2023/04/11 07:12:51;;;;;;;;;;;;;;;4.87;100.00;99472.53;4934856;29;19945;-83
2023/04/11 07:15:17;;;;;;;;;;;;;;;5.00;100.00;99461.00;4918345;29;19997;-83
2023/04/11 07:17:43;;;;;;;;;;;;;;;5.11;100.00;99454.81;4922983;29;19915;-83
2023/04/11 07:20:09;;;;;;;;;;;;;;;5.21;100.00;99453.88;4926633;29;19922;-84
2023/04/11 07:22:35;;;;;;;;;;;;;;;5.24;100.00;99446.72;4917485;29;19929;-83
2023/04/11 07:25:04;;;;;;;;;;;;;;;5.30;100.00;99447.00;4945000;29;20017;-83
2023/04/11 07:27:31;;;;;;;;;;;;;;;5.38;100.00;99448.13;4932902;29;19919;-83
2023/04/11 07:29:57;;;;;;;;;;;;;;;5.46;100.00;99446.47;4915536;29;20021;-84
2023/04/11 07:32:23;;;;;;;;;;;;;;;5.51;100.00;99437.41;4938222;29;19918;-83
2023/04/11 07:34:49;;;;;;;;;;;;;;;5.58;100.00;99431.47;4924228;29;19923;-84
2023/04/11 07:37:15;;;;;;;;;;;;;;;5.65;100.00;99423.91;4941108;28;20697;-84
2023/04/11 07:39:41;;;;;;;;;;;;;;;5.69;100.00;99413.94;4884141;29;19923;-83
2023/04/11 07:42:07;;;;;;;;;;;;;;;5.67;100.00;99418.50;4887900;29;19919;-84
2023/04/11 07:44:32;;;;;;;;;;;;;;;5.68;100.00;99415.75;4915970;29;20375;-84
2023/04/11 07:46:58;;;;;;;;;;;;;;;5.65;100.00;99413.41;4945926;29;20327;-83
2023/04/11 07:49:24;;;;;;;;;;;;;;;5.65;100.00;99413.41;4917324;29;20383;-84
2023/04/11 07:51:49;;;;;;;;;;;;;;;5.64;100.00;99411.72;4915726;29;19929;-76
2023/04/11 07:54:15;;;;;;;;;;;;;;;5.65;100.00;99409.94;4927671;29;20414;-77
2023/04/11 07:56:41;;;;;;;;;;;;;;;5.69;100.00;99404.28;4923496;29;20585;-84
2023/04/11 07:59:07;;;;;;;;;;;;;;;5.72;100.00;99400.56;4933116;29;20422;-84
2023/04/11 08:01:32;;;;;;;;;;;;;;;5.75;100.00;99396.84;4928590;29;19923;-84
2023/04/11 08:03:58;;;;;;;;;;;;;;;5.72;100.00;99392.69;4924058;29;19919;-82
2023/04/11 08:06:23;;;;;;;;;;;;;;;5.73;100.00;99385.66;4944709;29;19930;-83
2023/04/11 08:08:49;;;;;;;;;;;;;;;5.75;100.00;99381.91;4920917;29;19929;-84
2023/04/11 08:11:15;;;;;;;;;;;;;;;5.79;100.00;99385.94;4902163;29;20364;-83
2023/04/11 08:13:41;;;;;;;;;;;;;;;5.86;100.00;99388.81;4911694;29;19923;-84
2023/04/11 08:16:09;;;;;;;;;;;;;;;5.93;100.00;99375.97;4934163;29;19934;-83
2023/04/11 08:18:36;;;;;;;;;;;;;;;6.00;100.00;99363.13;4943148;28;19981;-83
2023/04/11 08:21:02;;;;;;;;;;;;;;;6.04;100.00;99352.22;4935648;29;19981;-84
2023/04/11 08:23:28;;;;;;;;;;;;;;;6.10;100.00;99355.25;4886880;29;19978;-84
2023/04/11 08:25:54;;;;;;;;;;;;;;;6.12;100.00;99348.91;4936045;29;20403;-84
2023/04/11 08:28:21;;;;;;;;;;;;;;;6.19;100.00;99343.91;4934578;29;19918;-83
2023/04/11 08:30:47;;;;;;;;;;;;;;;6.23;100.00;99340.03;4911348;29;19919;-84
2023/04/11 08:33:14;;;;;;;;;;;;;;;6.29;100.00;99331.56;4935778;29;20005;-84
2023/04/11 08:35:41;;;;;;;;;;;;;;;6.35;100.00;99330.19;4898073;29;20031;-84
2023/04/11 08:38:08;;;;;;;;;;;;;;;6.40;100.00;99316.63;4926587;29;21242;-84
2023/04/11 08:40:34;;;;;;;;;;;;;;;6.48;100.00;99308.84;4920156;29;19919;-84
2023/04/11 08:43:00;;;;;;;;;;;;;;;6.48;100.00;99290.47;4928153;29;19998;-84
2023/04/11 08:45:26;;;;;;;;;;;;;;;6.46;100.00;99276.66;4915528;29;19927;-85
2023/04/11 08:47:52;;;;;;;;;;;;;;;6.43;100.00;99269.88;4937482;29;19925;-84
2023/04/11 08:50:17;;;;;;;;;;;;;;;6.41;100.00;99257.91;4924632;29;19922;-84
2023/04/11 08:52:43;;;;;;;;;;;;;;;6.46;100.00;99255.66;4901598;29;19919;-84
2023/04/11 08:55:09;;;;;;;;;;;;;;;6.48;100.00;99258.97;4921881;29;19919;-83
2023/04/11 08:57:37;;;;;;;;;;;;;;;6.50;100.00;99248.34;4909444;29;20391;-84
2023/04/11 09:00:13;;;;;;;;;;;;;;;6.54;100.00;99228.69;4935878;29;19918;-83
2023/04/11 09:02:57;;;;;;;;;;;;;;;6.57;100.00;99226.59;4908300;29;20376;-84
2023/04/11 09:05:27;;;;;;;;;;;;;;;6.60;100.00;99220.19;4904658;29;19929;-85
2023/04/11 09:07:53;;;;;;;;;;;;;;;6.67;100.00;99212.56;4923987;29;19919;-85
2023/04/11 09:10:20;;;;;;;;;;;;;;;6.76;100.00;99197.69;4926279;29;19926;-84
2023/04/11 09:12:45;;;;;;;;;;;;;;;6.84;100.00;99189.91;4904305;29;20268;-84
2023/04/11 09:15:19;;;;;;;;;;;;;;;6.88;100.00;99182.53;4910241;29;19923;-84
2023/04/11 09:17:44;;;;;;;;;;;;;;;6.93;100.00;99169.75;4917428;29;19934;-84
2023/04/11 09:20:17;;;;;;;;;;;;;;;7.00;100.00;99157.69;4913102;29;20001;-84
2023/04/11 09:22:43;;;;;;;;;;;;;;;7.07;100.00;99142.13;4896664;29;20493;-85
2023/04/11 09:25:08;;;;;;;;;;;;;;;7.14;100.00;99129.19;4897882;29;19927;-84
2023/04/11 09:27:35;;;;;;;;;;;;;;;7.20;100.00;99118.88;4911381;29;20399;-84
2023/04/11 09:30:01;;;;;;;;;;;;;;;7.30;100.00;99105.63;4920798;28;19923;-84
2023/04/11 09:32:33;;;;;;;;;;;;;;;7.28;100.00;99094.44;4909862;29;19923;-84
2023/04/11 09:35:11;;;;;;;;;;;;;;;7.30;100.00;99089.03;4915957;29;19924;-84
2023/04/11 09:37:44;;;;;;;;;;;;;;;7.35;100.00;99078.03;4925256;29;19923;-84
2023/04/11 09:40:10;;;;;;;;;;;;;;;7.34;100.00;99074.63;4930122;29;19923;-85
2023/04/11 09:42:37;;;;;;;;;;;;;;;7.32;100.00;99073.94;4893156;29;19930;-84
2023/04/11 09:45:03;;;;;;;;;;;;;;;7.41;100.00;99062.47;4915790;29;20392;-84
2023/04/11 09:47:31;;;;;;;;;;;;;;;7.41;100.00;99056.38;4915393;29;20288;-84
2023/04/11 09:49:57;;;;;;;;;;;;;;;7.46;100.00;99048.84;4926004;29;19919;-84
2023/04/11 09:52:23;;;;;;;;;;;;;;;7.52;100.00;99040.34;4917358;29;20006;-84
2023/04/11 09:54:49;;;;;;;;;;;;;;;7.56;100.00;99040.84;4931442;29;20006;-84
2023/04/11 09:57:16;;;;;;;;;;;;;;;7.57;100.00;99022.28;4912751;29;19919;-84
2023/04/11 09:59:43;;;;;;;;;;;;;;;7.63;100.00;99010.28;4912640;29;19919;-84
2023/04/11 10:02:08;;;;;;;;;;;;;;;7.69;100.00;99003.56;4919877;29;19923;-82
2023/04/11 10:04:34;;;;;;;;;;;;;;;7.74;100.00;99001.25;4919579;29;19920;-84
2023/04/11 10:07:06;;;;;;;;;;;;;;;7.74;100.00;98988.13;4887704;29;19924;-84
2023/04/11 10:09:36;;;;;;;;;;;;;;;7.76;100.00;98985.31;4899377;29;19935;-84
2023/04/11 10:12:01;;;;;;;;;;;;;;;7.75;100.00;98966.09;4943209;28;19954;-85
2023/04/11 10:14:36;;;;;;;;;;;;;;;7.77;100.00;98958.84;4919350;29;19918;-85
2023/04/11 10:17:15;;;;;;;;;;;;;;;7.86;100.00;98956.22;4923437;29;19927;-83
2023/04/11 10:19:42;;;;;;;;;;;;;;;7.85;100.00;98936.19;4901965;29;19934;-84
2023/04/11 10:22:08;;;;;;;;;;;;;;;7.89;100.00;98922.53;4915203;29;20368;-84
2023/04/11 10:24:34;;;;;;;;;;;;;;;7.87;100.00;98919.25;4896930;29;19959;-83
2023/04/11 10:27:02;;;;;;;;;;;;;;;7.91;100.00;98904.78;4901631;29;19927;-83
2023/04/11 10:29:39;;;;;;;;;;;;;;;7.87;100.00;98892.13;4896257;29;20297;-82
2023/04/11 10:32:13;;;;;;;;;;;;;;;7.88;100.00;98875.34;4914093;29;19948;-84
2023/04/11 10:34:59;;;;;;;;;;;;;;;7.97;100.00;98855.94;4927242;29;19942;-83
2023/04/11 10:37:34;;;;;;;;;;;;;;;8.01;100.00;98851.97;4921761;29;19934;-84
2023/04/11 10:40:08;;;;;;;;;;;;;;;8.11;100.00;98837.81;4920410;29;19919;-83
2023/04/11 10:42:35;;;;;;;;;;;;;;;8.12;100.00;98832.38;4894627;29;20344;-84
2023/04/11 10:45:24;;;;;;;;;;;;;;;8.21;100.00;98827.09;4929703;29;19923;-83
2023/04/11 10:47:56;;;;;;;;;;;;;;;8.27;100.00;98810.63;4887374;29;20013;-84
2023/04/11 10:50:25;;;;;;;;;;;;;;;8.36;100.00;98800.91;4929272;29;19934;-85
2023/04/11 10:53:00;;;;;;;;;;;;;;;8.43;100.00;98793.94;4890939;29;19977;-84
2023/04/11 10:55:27;;;;;;;;;;;;;;;8.49;100.00;98768.75;4912707;29;20704;-84
2023/04/11 10:58:06;;;;;;;;;;;;;;;8.58;100.00;98764.28;4935638;28;19923;-85
2023/04/11 11:00:54;;;;;;;;;;;;;;;8.65;100.00;98747.63;4904531;29;19918;-84
2023/04/11 11:03:21;;;;;;;;;;;;;;;8.73;100.00;98733.56;4931397;29;19930;-85
2023/04/11 11:05:47;;;;;;;;;;;;;;;8.83;100.00;98728.09;4928033;29;19977;-85
2023/04/11 11:08:12;;;;;;;;;;;;;;;8.84;100.00;98728.91;4948773;28;19930;-85
2023/04/11 11:10:42;;;;;;;;;;;;;;;8.90;100.00;98710.56;4870565;29;20367;-84
2023/04/11 11:13:08;;;;;;;;;;;;;;;8.86;100.00;98703.19;4931579;29;19978;-84
2023/04/11 11:15:37;;;;;;;;;;;;;;;8.85;100.00;98693.66;4925667;29;20442;-84
2023/04/11 11:18:04;;;;;;;;;;;;;;;8.86;100.00;98690.00;4939258;29;19923;-84
2023/04/11 11:20:30;;;;;;;;;;;;;;;8.89;100.00;98672.03;4938751;29;19961;-85
2023/04/11 11:22:59;;;;;;;;;;;;;;;8.91;100.00;98658.69;4944658;28;20041;-85
2023/04/11 11:25:26;;;;;;;;;;;;;;;8.89;100.00;98663.31;4933670;29;20053;-84
2023/04/11 11:28:21;;;;;;;;;;;;;;;8.85;100.00;98646.22;4907410;29;19923;-84
2023/04/11 11:30:51;;;;;;;;;;;;;;;8.87;100.00;98629.25;4927370;29;19946;-85
2023/04/11 11:33:18;;;;;;;;;;;;;;;8.89;100.00;98615.88;4947958;28;19922;-83
2023/04/11 11:35:55;;;;;;;;;;;;;;;8.95;100.00;98617.00;4946196;28;19934;-84
2023/04/11 11:38:23;;;;;;;;;;;;;;;8.98;100.00;98606.09;4944705;28;19930;-83
2023/04/11 11:40:49;;;;;;;;;;;;;;;8.97;100.00;98602.63;4945645;28;19966;-84
2023/04/11 11:43:15;;;;;;;;;;;;;;;9.04;100.00;98592.22;4943994;29;19950;-84
2023/04/11 11:45:41;;;;;;;;;;;;;;;9.12;100.00;98578.13;4924635;29;19935;-84
2023/04/11 11:48:07;;;;;;;;;;;;;;;9.16;100.00;98574.94;4931258;29;19934;-84
2023/04/11 11:50:33;;;;;;;;;;;;;;;9.20;100.00;98561.41;4940438;29;19919;-84
2023/04/11 11:53:12;;;;;;;;;;;;;;;9.16;100.00;98545.13;4944551;28;19919;-84
2023/04/11 11:55:39;;;;;;;;;;;;;;;9.20;100.00;98541.13;4937558;29;19929;-83
2023/04/11 11:58:05;;;;;;;;;;;;;;;9.24;100.00;98534.50;4941088;29;19925;-84
2023/04/11 12:00:33;;;;;;;;;;;;;;;9.35;100.00;98517.38;4932917;29;19931;-84
2023/04/11 12:03:01;;;;;;;;;;;;;;;9.41;100.00;98505.28;4917369;29;19923;-84
2023/04/11 12:05:31;;;;;;;;;;;;;;;9.49;100.00;98502.53;4937753;29;19923;-84
2023/04/11 12:07:58;;;;;;;;;;;;;;;9.51;100.00;98499.69;4907880;29;20014;-77
2023/04/11 12:10:26;;;;;;;;;;;;;;;9.49;100.00;98493.81;4919434;29;19922;-77
2023/04/11 12:12:51;;;;;;;;;;;;;;;9.46;100.00;98483.66;4925019;29;19923;-84
2023/04/11 12:15:21;;;;;;;;;;;;;;;9.42;100.00;98468.19;4931484;29;19923;-84
2023/04/11 12:17:47;;;;;;;;;;;;;;;9.46;100.00;98465.97;4915019;29;19958;-85
2023/04/11 12:20:14;;;;;;;;;;;;;;;9.47;100.00;98451.00;4926558;29;19923;-86
2023/04/11 12:22:40;;;;;;;;;;;;;;;9.42;100.00;98449.75;4904489;29;19926;-84
2023/04/11 12:25:13;;;;;;;;;;;;;;;9.38;100.00;98440.53;4923066;29;19958;-85
2023/04/11 12:27:40;;;;;;;;;;;;;;;9.34;100.00;98418.22;4933001;29;19935;-84
2023/04/11 12:30:07;;;;;;;;;;;;;;;9.33;100.00;98407.84;4924343;29;19923;-84
2023/04/11 12:32:32;;;;;;;;;;;;;;;9.28;100.00;98401.31;4936136;29;19979;-77
2023/04/11 12:34:59;;;;;;;;;;;;;;;9.30;100.00;98401.94;4934999;29;19965;-77
2023/04/11 12:37:25;;;;;;;;;;;;;;;9.36;100.00;98379.28;4918766;29;19925;-84
2023/04/11 12:39:50;;;;;;;;;;;;;;;9.39;100.00;98375.44;4930584;29;19972;-84
2023/04/11 12:42:16;;;;;;;;;;;;;;;9.42;100.00;98362.72;4915372;29;19977;-84
2023/04/11 12:44:42;;;;;;;;;;;;;;;9.47;100.00;98345.50;4895859;29;19918;-85
2023/04/11 12:47:08;;;;;;;;;;;;;;;9.41;100.00;98345.25;4921243;29;20292;-84
2023/04/11 12:49:34;;;;;;;;;;;;;;;9.37;100.00;98338.72;4939828;29;19918;-85